sensor_id;sensor_type;location;lat;lon;timestamp;P1;durP1;ratioP1;P2;durP2;ratioP2
23872;SDS011;42884;50.718;4.630;2023-04-25T00:01:48;22.10;;;5.93;;
23872;SDS011;42884;50.718;4.630;2023-04-25T00:04:13;20.55;;;6.47;;
23872;SDS011;42884;50.718;4.630;2023-04-25T00:06:39;14.60;;;5.60;;
23872;SDS011;42884;50.718;4.630;2023-04-25T00:09:05;21.70;;;6.13;;
23872;SDS011;42884;50.718;4.630;2023-04-25T00:11:36;20.13;;;6.25;;
23872;SDS011;42884;50.718;4.630;2023-04-25T00:14:02;15.02;;;5.82;;
23872;SDS011;42884;50.718;4.630;2023-04-25T00:16:29;23.13;;;6.95;;
23872;SDS011;42884;50.718;4.630;2023-04-25T00:18:58;20.25;;;5.72;;
23872;SDS011;42884;50.718;4.630;2023-04-25T00:21:24;17.67;;;5.85;;
23872;SDS011;42884;50.718;4.630;2023-04-25T00:23:52;13.50;;;5.50;;
23872;SDS011;42884;50.718;4.630;2023-04-25T00:26:18;15.52;;;5.03;;
23872;SDS011;42884;50.718;4.630;2023-04-25T00:28:43;18.05;;;5.65;;
23872;SDS011;42884;50.718;4.630;2023-04-25T00:33:35;15.63;;;4.90;;
23872;SDS011;42884;50.718;4.630;2023-04-25T00:36:01;20.35;;;5.28;;
23872;SDS011;42884;50.718;4.630;2023-04-25T00:38:27;20.08;;;5.65;;
23872;SDS011;42884;50.718;4.630;2023-04-25T00:40:52;14.73;;;6.32;;
23872;SDS011;42884;50.718;4.630;2023-04-25T00:43:20;14.63;;;4.90;;
23872;SDS011;42884;50.718;4.630;2023-04-25T00:45:46;20.50;;;5.00;;
23872;SDS011;42884;50.718;4.630;2023-04-25T00:48:16;18.55;;;6.28;;
23872;SDS011;42884;50.718;4.630;2023-04-25T00:50:44;15.98;;;5.13;;
23872;SDS011;42884;50.718;4.630;2023-04-25T00:53:20;16.13;;;5.28;;
23872;SDS011;42884;50.718;4.630;2023-04-25T00:55:46;21.05;;;5.95;;
23872;SDS011;42884;50.718;4.630;2023-04-25T01:00:39;19.17;;;5.80;;
23872;SDS011;42884;50.718;4.630;2023-04-25T01:03:06;14.35;;;5.28;;
23872;SDS011;42884;50.718;4.630;2023-04-25T01:05:32;21.60;;;5.80;;
23872;SDS011;42884;50.718;4.630;2023-04-25T01:07:58;21.38;;;5.75;;
23872;SDS011;42884;50.718;4.630;2023-04-25T01:10:24;16.63;;;5.25;;
23872;SDS011;42884;50.718;4.630;2023-04-25T01:12:50;19.38;;;5.82;;
23872;SDS011;42884;50.718;4.630;2023-04-25T01:15:15;14.25;;;4.78;;
23872;SDS011;42884;50.718;4.630;2023-04-25T01:17:41;18.33;;;6.32;;
23872;SDS011;42884;50.718;4.630;2023-04-25T01:20:09;14.43;;;5.57;;
23872;SDS011;42884;50.718;4.630;2023-04-25T01:22:36;20.90;;;5.90;;
23872;SDS011;42884;50.718;4.630;2023-04-25T01:25:02;21.05;;;6.03;;
23872;SDS011;42884;50.718;4.630;2023-04-25T01:27:28;19.73;;;6.50;;
23872;SDS011;42884;50.718;4.630;2023-04-25T01:29:54;16.00;;;5.55;;
23872;SDS011;42884;50.718;4.630;2023-04-25T01:32:21;19.38;;;5.43;;
23872;SDS011;42884;50.718;4.630;2023-04-25T01:34:48;18.50;;;6.15;;
23872;SDS011;42884;50.718;4.630;2023-04-25T01:37:14;17.38;;;6.45;;
23872;SDS011;42884;50.718;4.630;2023-04-25T01:39:41;19.15;;;5.75;;
23872;SDS011;42884;50.718;4.630;2023-04-25T01:42:07;14.82;;;5.70;;
23872;SDS011;42884;50.718;4.630;2023-04-25T01:44:33;27.10;;;7.00;;
23872;SDS011;42884;50.718;4.630;2023-04-25T01:46:58;15.20;;;5.95;;
23872;SDS011;42884;50.718;4.630;2023-04-25T01:49:24;23.92;;;6.68;;
23872;SDS011;42884;50.718;4.630;2023-04-25T01:51:50;25.20;;;6.72;;
23872;SDS011;42884;50.718;4.630;2023-04-25T01:54:16;18.60;;;6.55;;
23872;SDS011;42884;50.718;4.630;2023-04-25T01:56:43;17.10;;;6.40;;
23872;SDS011;42884;50.718;4.630;2023-04-25T01:59:14;19.13;;;6.10;;
23872;SDS011;42884;50.718;4.630;2023-04-25T02:01:40;19.80;;;7.43;;
23872;SDS011;42884;50.718;4.630;2023-04-25T02:04:06;19.92;;;6.80;;
23872;SDS011;42884;50.718;4.630;2023-04-25T02:06:31;28.98;;;7.95;;
23872;SDS011;42884;50.718;4.630;2023-04-25T02:08:57;21.42;;;6.63;;
23872;SDS011;42884;50.718;4.630;2023-04-25T02:11:23;22.17;;;7.97;;
23872;SDS011;42884;50.718;4.630;2023-04-25T02:13:49;16.30;;;6.00;;
23872;SDS011;42884;50.718;4.630;2023-04-25T02:16:14;21.77;;;7.05;;
23872;SDS011;42884;50.718;4.630;2023-04-25T02:18:40;26.67;;;8.02;;
23872;SDS011;42884;50.718;4.630;2023-04-25T02:21:06;23.70;;;8.70;;
23872;SDS011;42884;50.718;4.630;2023-04-25T02:23:31;17.08;;;7.35;;
23872;SDS011;42884;50.718;4.630;2023-04-25T02:25:57;19.95;;;6.30;;
23872;SDS011;42884;50.718;4.630;2023-04-25T02:28:24;21.23;;;7.35;;
23872;SDS011;42884;50.718;4.630;2023-04-25T02:30:51;21.58;;;7.35;;
23872;SDS011;42884;50.718;4.630;2023-04-25T02:35:42;14.73;;;6.63;;
23872;SDS011;42884;50.718;4.630;2023-04-25T02:38:08;27.98;;;8.05;;
23872;SDS011;42884;50.718;4.630;2023-04-25T02:40:34;29.23;;;7.57;;
23872;SDS011;42884;50.718;4.630;2023-04-25T02:43:00;24.98;;;7.75;;
23872;SDS011;42884;50.718;4.630;2023-04-25T02:45:25;25.75;;;7.05;;
23872;SDS011;42884;50.718;4.630;2023-04-25T02:47:51;27.75;;;8.50;;
23872;SDS011;42884;50.718;4.630;2023-04-25T02:50:17;26.23;;;7.88;;
23872;SDS011;42884;50.718;4.630;2023-04-25T02:52:43;26.63;;;7.50;;
23872;SDS011;42884;50.718;4.630;2023-04-25T02:55:10;25.60;;;8.65;;
23872;SDS011;42884;50.718;4.630;2023-04-25T02:57:36;22.33;;;7.72;;
23872;SDS011;42884;50.718;4.630;2023-04-25T03:00:01;22.77;;;7.70;;
23872;SDS011;42884;50.718;4.630;2023-04-25T03:02:29;23.85;;;8.63;;
23872;SDS011;42884;50.718;4.630;2023-04-25T03:04:55;25.45;;;7.90;;
23872;SDS011;42884;50.718;4.630;2023-04-25T03:07:21;21.42;;;7.75;;
23872;SDS011;42884;50.718;4.630;2023-04-25T03:09:46;25.48;;;8.20;;
23872;SDS011;42884;50.718;4.630;2023-04-25T03:12:12;25.33;;;7.68;;
23872;SDS011;42884;50.718;4.630;2023-04-25T03:14:38;27.38;;;7.93;;
23872;SDS011;42884;50.718;4.630;2023-04-25T03:17:03;21.67;;;7.20;;
23872;SDS011;42884;50.718;4.630;2023-04-25T03:19:29;20.80;;;6.80;;
23872;SDS011;42884;50.718;4.630;2023-04-25T03:21:55;29.35;;;6.75;;
23872;SDS011;42884;50.718;4.630;2023-04-25T03:24:21;17.17;;;5.75;;
23872;SDS011;42884;50.718;4.630;2023-04-25T03:26:47;15.50;;;5.32;;
23872;SDS011;42884;50.718;4.630;2023-04-25T03:29:12;16.98;;;5.32;;
23872;SDS011;42884;50.718;4.630;2023-04-25T03:31:38;12.52;;;4.85;;
23872;SDS011;42884;50.718;4.630;2023-04-25T03:34:04;24.98;;;5.72;;
23872;SDS011;42884;50.718;4.630;2023-04-25T03:36:29;15.90;;;5.25;;
23872;SDS011;42884;50.718;4.630;2023-04-25T03:38:55;11.30;;;4.63;;
23872;SDS011;42884;50.718;4.630;2023-04-25T03:41:21;13.25;;;5.38;;
23872;SDS011;42884;50.718;4.630;2023-04-25T03:43:47;11.45;;;5.15;;
23872;SDS011;42884;50.718;4.630;2023-04-25T03:46:12;15.85;;;5.75;;
23872;SDS011;42884;50.718;4.630;2023-04-25T03:48:38;22.50;;;6.45;;
23872;SDS011;42884;50.718;4.630;2023-04-25T03:51:04;17.02;;;6.10;;
23872;SDS011;42884;50.718;4.630;2023-04-25T03:53:29;14.55;;;4.80;;
23872;SDS011;42884;50.718;4.630;2023-04-25T03:55:55;15.02;;;5.43;;
23872;SDS011;42884;50.718;4.630;2023-04-25T03:58:21;16.88;;;5.70;;
23872;SDS011;42884;50.718;4.630;2023-04-25T04:00:48;12.27;;;6.05;;
23872;SDS011;42884;50.718;4.630;2023-04-25T04:03:13;12.38;;;5.57;;
23872;SDS011;42884;50.718;4.630;2023-04-25T04:05:39;23.02;;;6.80;;
23872;SDS011;42884;50.718;4.630;2023-04-25T04:08:05;18.27;;;6.00;;
23872;SDS011;42884;50.718;4.630;2023-04-25T04:10:31;21.80;;;8.30;;
23872;SDS011;42884;50.718;4.630;2023-04-25T04:12:57;12.55;;;5.22;;
23872;SDS011;42884;50.718;4.630;2023-04-25T04:15:22;22.65;;;6.53;;
23872;SDS011;42884;50.718;4.630;2023-04-25T04:17:48;16.30;;;5.55;;
23872;SDS011;42884;50.718;4.630;2023-04-25T04:20:14;18.05;;;6.10;;
23872;SDS011;42884;50.718;4.630;2023-04-25T04:22:40;20.77;;;6.80;;
23872;SDS011;42884;50.718;4.630;2023-04-25T04:25:06;17.00;;;6.32;;
23872;SDS011;42884;50.718;4.630;2023-04-25T04:29:57;23.90;;;6.68;;
23872;SDS011;42884;50.718;4.630;2023-04-25T04:32:23;20.98;;;6.85;;
23872;SDS011;42884;50.718;4.630;2023-04-25T04:34:50;16.42;;;6.68;;
23872;SDS011;42884;50.718;4.630;2023-04-25T04:37:17;20.83;;;6.30;;
23872;SDS011;42884;50.718;4.630;2023-04-25T04:39:43;17.85;;;6.40;;
23872;SDS011;42884;50.718;4.630;2023-04-25T04:42:09;21.60;;;7.20;;
23872;SDS011;42884;50.718;4.630;2023-04-25T04:44:36;19.20;;;6.20;;
23872;SDS011;42884;50.718;4.630;2023-04-25T04:47:03;14.02;;;6.28;;
23872;SDS011;42884;50.718;4.630;2023-04-25T04:49:31;19.60;;;6.18;;
23872;SDS011;42884;50.718;4.630;2023-04-25T04:51:57;18.25;;;6.72;;
23872;SDS011;42884;50.718;4.630;2023-04-25T04:54:24;16.92;;;6.22;;
23872;SDS011;42884;50.718;4.630;2023-04-25T04:56:50;22.35;;;6.82;;
23872;SDS011;42884;50.718;4.630;2023-04-25T04:59:17;20.15;;;5.20;;
23872;SDS011;42884;50.718;4.630;2023-04-25T05:01:43;21.10;;;6.78;;
23872;SDS011;42884;50.718;4.630;2023-04-25T05:04:09;21.20;;;5.35;;
23872;SDS011;42884;50.718;4.630;2023-04-25T05:06:34;23.45;;;5.88;;
23872;SDS011;42884;50.718;4.630;2023-04-25T05:09:01;19.30;;;5.45;;
23872;SDS011;42884;50.718;4.630;2023-04-25T05:11:27;21.25;;;6.63;;
23872;SDS011;42884;50.718;4.630;2023-04-25T05:13:53;16.52;;;6.22;;
23872;SDS011;42884;50.718;4.630;2023-04-25T05:16:19;19.65;;;5.13;;
23872;SDS011;42884;50.718;4.630;2023-04-25T05:18:46;20.45;;;5.80;;
23872;SDS011;42884;50.718;4.630;2023-04-25T05:21:12;20.02;;;6.22;;
23872;SDS011;42884;50.718;4.630;2023-04-25T05:23:38;15.30;;;5.85;;
23872;SDS011;42884;50.718;4.630;2023-04-25T05:26:04;15.73;;;5.70;;
23872;SDS011;42884;50.718;4.630;2023-04-25T05:28:38;14.23;;;5.68;;
23872;SDS011;42884;50.718;4.630;2023-04-25T05:31:05;20.33;;;5.50;;
23872;SDS011;42884;50.718;4.630;2023-04-25T05:33:32;13.45;;;4.88;;
23872;SDS011;42884;50.718;4.630;2023-04-25T05:35:58;17.30;;;5.63;;
23872;SDS011;42884;50.718;4.630;2023-04-25T05:38:23;11.40;;;4.90;;
23872;SDS011;42884;50.718;4.630;2023-04-25T05:40:49;17.52;;;5.47;;
23872;SDS011;42884;50.718;4.630;2023-04-25T05:43:15;15.80;;;5.38;;
23872;SDS011;42884;50.718;4.630;2023-04-25T05:45:41;16.83;;;5.07;;
23872;SDS011;42884;50.718;4.630;2023-04-25T05:48:06;17.50;;;5.65;;
23872;SDS011;42884;50.718;4.630;2023-04-25T05:50:32;15.25;;;5.15;;
23872;SDS011;42884;50.718;4.630;2023-04-25T05:52:58;13.63;;;5.53;;
23872;SDS011;42884;50.718;4.630;2023-04-25T05:55:23;10.68;;;4.72;;
23872;SDS011;42884;50.718;4.630;2023-04-25T05:57:49;21.15;;;5.72;;
23872;SDS011;42884;50.718;4.630;2023-04-25T06:00:15;15.57;;;5.90;;
23872;SDS011;42884;50.718;4.630;2023-04-25T06:02:41;15.77;;;5.85;;
23872;SDS011;42884;50.718;4.630;2023-04-25T06:05:07;20.35;;;5.15;;
23872;SDS011;42884;50.718;4.630;2023-04-25T06:07:33;14.20;;;5.25;;
23872;SDS011;42884;50.718;4.630;2023-04-25T06:09:59;14.90;;;5.47;;
23872;SDS011;42884;50.718;4.630;2023-04-25T06:12:26;21.02;;;6.20;;
23872;SDS011;42884;50.718;4.630;2023-04-25T06:14:52;22.67;;;5.55;;
23872;SDS011;42884;50.718;4.630;2023-04-25T06:17:17;16.60;;;5.53;;
23872;SDS011;42884;50.718;4.630;2023-04-25T06:19:43;18.27;;;5.68;;
23872;SDS011;42884;50.718;4.630;2023-04-25T06:22:09;24.20;;;6.65;;
23872;SDS011;42884;50.718;4.630;2023-04-25T06:27:01;15.60;;;5.90;;
23872;SDS011;42884;50.718;4.630;2023-04-25T06:29:26;15.75;;;5.50;;
23872;SDS011;42884;50.718;4.630;2023-04-25T06:31:52;16.48;;;5.93;;
23872;SDS011;42884;50.718;4.630;2023-04-25T06:34:18;20.63;;;6.38;;
23872;SDS011;42884;50.718;4.630;2023-04-25T06:36:44;23.13;;;6.18;;
23872;SDS011;42884;50.718;4.630;2023-04-25T06:39:09;20.95;;;6.32;;
23872;SDS011;42884;50.718;4.630;2023-04-25T06:41:35;13.32;;;5.75;;
23872;SDS011;42884;50.718;4.630;2023-04-25T06:44:01;14.75;;;5.60;;
23872;SDS011;42884;50.718;4.630;2023-04-25T06:46:27;14.00;;;6.88;;
23872;SDS011;42884;50.718;4.630;2023-04-25T06:51:19;14.07;;;5.95;;
23872;SDS011;42884;50.718;4.630;2023-04-25T06:53:45;21.02;;;6.07;;
23872;SDS011;42884;50.718;4.630;2023-04-25T06:56:10;25.02;;;6.90;;
23872;SDS011;42884;50.718;4.630;2023-04-25T06:58:36;14.80;;;6.50;;
23872;SDS011;42884;50.718;4.630;2023-04-25T07:01:02;22.10;;;7.15;;
23872;SDS011;42884;50.718;4.630;2023-04-25T07:03:28;15.55;;;6.28;;
23872;SDS011;42884;50.718;4.630;2023-04-25T07:05:54;17.48;;;6.65;;
23872;SDS011;42884;50.718;4.630;2023-04-25T07:08:20;23.25;;;6.38;;
23872;SDS011;42884;50.718;4.630;2023-04-25T07:13:12;22.02;;;6.35;;
23872;SDS011;42884;50.718;4.630;2023-04-25T07:15:37;25.52;;;6.97;;
23872;SDS011;42884;50.718;4.630;2023-04-25T07:18:03;19.45;;;6.03;;
23872;SDS011;42884;50.718;4.630;2023-04-25T07:20:29;25.77;;;6.38;;
23872;SDS011;42884;50.718;4.630;2023-04-25T07:22:56;19.20;;;6.18;;
23872;SDS011;42884;50.718;4.630;2023-04-25T07:25:22;26.10;;;6.63;;
23872;SDS011;42884;50.718;4.630;2023-04-25T07:27:47;13.85;;;5.70;;
23872;SDS011;42884;50.718;4.630;2023-04-25T07:30:13;19.60;;;6.30;;
23872;SDS011;42884;50.718;4.630;2023-04-25T07:32:39;13.90;;;5.53;;
23872;SDS011;42884;50.718;4.630;2023-04-25T07:35:05;16.08;;;5.35;;
23872;SDS011;42884;50.718;4.630;2023-04-25T07:37:32;17.13;;;5.45;;
23872;SDS011;42884;50.718;4.630;2023-04-25T07:39:59;16.60;;;5.78;;
23872;SDS011;42884;50.718;4.630;2023-04-25T07:42:24;16.83;;;5.45;;
23872;SDS011;42884;50.718;4.630;2023-04-25T07:44:50;21.40;;;6.20;;
23872;SDS011;42884;50.718;4.630;2023-04-25T07:47:16;18.55;;;5.72;;
23872;SDS011;42884;50.718;4.630;2023-04-25T07:49:44;22.23;;;6.00;;
23872;SDS011;42884;50.718;4.630;2023-04-25T07:52:10;21.60;;;5.97;;
23872;SDS011;42884;50.718;4.630;2023-04-25T07:54:36;19.45;;;5.55;;
23872;SDS011;42884;50.718;4.630;2023-04-25T07:57:02;14.43;;;5.15;;
23872;SDS011;42884;50.718;4.630;2023-04-25T07:59:27;23.63;;;6.03;;
23872;SDS011;42884;50.718;4.630;2023-04-25T08:01:53;16.17;;;5.78;;
23872;SDS011;42884;50.718;4.630;2023-04-25T08:04:19;16.55;;;5.85;;
23872;SDS011;42884;50.718;4.630;2023-04-25T08:06:45;19.38;;;6.28;;
23872;SDS011;42884;50.718;4.630;2023-04-25T08:09:11;13.85;;;5.75;;
23872;SDS011;42884;50.718;4.630;2023-04-25T08:11:37;23.80;;;6.10;;
23872;SDS011;42884;50.718;4.630;2023-04-25T08:14:03;23.63;;;7.03;;
23872;SDS011;42884;50.718;4.630;2023-04-25T08:16:28;25.45;;;7.07;;
23872;SDS011;42884;50.718;4.630;2023-04-25T08:18:55;20.42;;;7.05;;
23872;SDS011;42884;50.718;4.630;2023-04-25T08:21:20;18.83;;;7.05;;
23872;SDS011;42884;50.718;4.630;2023-04-25T08:23:46;20.23;;;6.32;;
23872;SDS011;42884;50.718;4.630;2023-04-25T08:26:12;20.55;;;6.82;;
23872;SDS011;42884;50.718;4.630;2023-04-25T08:28:38;20.25;;;6.32;;
23872;SDS011;42884;50.718;4.630;2023-04-25T08:31:03;18.90;;;6.10;;
23872;SDS011;42884;50.718;4.630;2023-04-25T08:33:29;21.50;;;6.68;;
23872;SDS011;42884;50.718;4.630;2023-04-25T08:35:56;14.15;;;6.00;;
23872;SDS011;42884;50.718;4.630;2023-04-25T08:38:22;18.75;;;6.30;;
23872;SDS011;42884;50.718;4.630;2023-04-25T08:40:51;15.68;;;5.50;;
23872;SDS011;42884;50.718;4.630;2023-04-25T08:43:18;19.00;;;5.93;;
23872;SDS011;42884;50.718;4.630;2023-04-25T08:45:45;15.68;;;5.20;;
23872;SDS011;42884;50.718;4.630;2023-04-25T08:48:15;12.15;;;4.55;;
23872;SDS011;42884;50.718;4.630;2023-04-25T08:50:45;12.77;;;4.20;;
23872;SDS011;42884;50.718;4.630;2023-04-25T08:53:22;14.30;;;5.03;;
23872;SDS011;42884;50.718;4.630;2023-04-25T08:55:55;17.13;;;4.88;;
23872;SDS011;42884;50.718;4.630;2023-04-25T08:58:22;11.52;;;3.45;;
23872;SDS011;42884;50.718;4.630;2023-04-25T09:00:48;9.38;;;3.53;;
23872;SDS011;42884;50.718;4.630;2023-04-25T09:03:15;13.77;;;3.53;;
23872;SDS011;42884;50.718;4.630;2023-04-25T09:08:07;15.07;;;3.80;;
23872;SDS011;42884;50.718;4.630;2023-04-25T09:10:33;13.80;;;4.40;;
23872;SDS011;42884;50.718;4.630;2023-04-25T09:15:51;11.38;;;3.47;;
23872;SDS011;42884;50.718;4.630;2023-04-25T09:18:25;17.73;;;4.43;;
23872;SDS011;42884;50.718;4.630;2023-04-25T09:20:53;15.32;;;4.28;;
23872;SDS011;42884;50.718;4.630;2023-04-25T09:23:20;14.77;;;4.05;;
23872;SDS011;42884;50.718;4.630;2023-04-25T09:25:47;11.02;;;3.63;;
23872;SDS011;42884;50.718;4.630;2023-04-25T09:28:14;12.05;;;4.50;;
23872;SDS011;42884;50.718;4.630;2023-04-25T09:30:41;18.15;;;5.15;;
23872;SDS011;42884;50.718;4.630;2023-04-25T09:33:07;10.57;;;4.90;;
23872;SDS011;42884;50.718;4.630;2023-04-25T09:35:35;12.90;;;4.22;;
23872;SDS011;42884;50.718;4.630;2023-04-25T09:38:07;13.43;;;4.80;;
23872;SDS011;42884;50.718;4.630;2023-04-25T09:40:39;10.93;;;4.65;;
23872;SDS011;42884;50.718;4.630;2023-04-25T09:43:09;9.23;;;4.03;;
23872;SDS011;42884;50.718;4.630;2023-04-25T09:45:43;13.43;;;4.78;;
23872;SDS011;42884;50.718;4.630;2023-04-25T09:48:10;9.30;;;4.32;;
23872;SDS011;42884;50.718;4.630;2023-04-25T09:50:37;12.52;;;5.57;;
23872;SDS011;42884;50.718;4.630;2023-04-25T09:53:04;12.65;;;4.70;;
23872;SDS011;42884;50.718;4.630;2023-04-25T09:55:34;10.57;;;4.15;;
23872;SDS011;42884;50.718;4.630;2023-04-25T09:58:01;8.38;;;3.40;;
23872;SDS011;42884;50.718;4.630;2023-04-25T10:00:30;10.68;;;3.67;;
23872;SDS011;42884;50.718;4.630;2023-04-25T10:02:57;11.10;;;3.88;;
23872;SDS011;42884;50.718;4.630;2023-04-25T10:05:29;9.95;;;3.60;;
23872;SDS011;42884;50.718;4.630;2023-04-25T10:07:57;9.32;;;3.33;;
23872;SDS011;42884;50.718;4.630;2023-04-25T10:10:27;9.00;;;3.35;;
23872;SDS011;42884;50.718;4.630;2023-04-25T10:12:55;11.30;;;4.63;;
23872;SDS011;42884;50.718;4.630;2023-04-25T10:15:21;13.32;;;3.90;;
23872;SDS011;42884;50.718;4.630;2023-04-25T10:17:48;10.27;;;3.30;;
23872;SDS011;42884;50.718;4.630;2023-04-25T10:20:15;11.13;;;4.10;;
23872;SDS011;42884;50.718;4.630;2023-04-25T10:22:41;10.35;;;3.00;;
23872;SDS011;42884;50.718;4.630;2023-04-25T10:25:10;13.07;;;3.58;;
23872;SDS011;42884;50.718;4.630;2023-04-25T10:27:36;15.00;;;3.70;;
23872;SDS011;42884;50.718;4.630;2023-04-25T10:30:10;9.48;;;3.40;;
23872;SDS011;42884;50.718;4.630;2023-04-25T10:32:41;13.75;;;3.60;;
23872;SDS011;42884;50.718;4.630;2023-04-25T10:35:18;8.93;;;3.08;;
23872;SDS011;42884;50.718;4.630;2023-04-25T10:38:05;6.40;;;2.88;;
23872;SDS011;42884;50.718;4.630;2023-04-25T10:40:35;14.98;;;4.18;;
23872;SDS011;42884;50.718;4.630;2023-04-25T10:44:02;8.52;;;3.53;;
23872;SDS011;42884;50.718;4.630;2023-04-25T10:45:56;8.95;;;3.38;;
23872;SDS011;42884;50.718;4.630;2023-04-25T10:48:28;9.15;;;3.10;;
23872;SDS011;42884;50.718;4.630;2023-04-25T10:51:11;10.68;;;3.00;;
23872;SDS011;42884;50.718;4.630;2023-04-25T10:53:41;12.10;;;3.15;;
23872;SDS011;42884;50.718;4.630;2023-04-25T10:58:44;6.10;;;2.72;;
23872;SDS011;42884;50.718;4.630;2023-04-25T11:01:12;12.23;;;3.10;;
23872;SDS011;42884;50.718;4.630;2023-04-25T11:03:42;11.43;;;2.67;;
23872;SDS011;42884;50.718;4.630;2023-04-25T11:06:51;9.25;;;2.95;;
23872;SDS011;42884;50.718;4.630;2023-04-25T11:08:57;8.38;;;2.45;;
23872;SDS011;42884;50.718;4.630;2023-04-25T11:11:26;12.60;;;2.65;;
23872;SDS011;42884;50.718;4.630;2023-04-25T11:13:52;5.30;;;2.17;;
23872;SDS011;42884;50.718;4.630;2023-04-25T11:16:17;8.38;;;2.53;;
23872;SDS011;42884;50.718;4.630;2023-04-25T11:18:43;7.47;;;2.42;;
23872;SDS011;42884;50.718;4.630;2023-04-25T11:21:10;8.63;;;2.25;;
23872;SDS011;42884;50.718;4.630;2023-04-25T11:23:36;7.97;;;3.00;;
23872;SDS011;42884;50.718;4.630;2023-04-25T11:26:03;7.55;;;2.35;;
23872;SDS011;42884;50.718;4.630;2023-04-25T11:28:29;6.63;;;2.15;;
23872;SDS011;42884;50.718;4.630;2023-04-25T11:30:55;6.88;;;1.70;;
23872;SDS011;42884;50.718;4.630;2023-04-25T11:35:53;6.78;;;2.30;;
23872;SDS011;42884;50.718;4.630;2023-04-25T11:38:20;8.35;;;2.53;;
23872;SDS011;42884;50.718;4.630;2023-04-25T11:40:49;7.05;;;2.03;;
23872;SDS011;42884;50.718;4.630;2023-04-25T11:43:21;9.00;;;2.15;;
23872;SDS011;42884;50.718;4.630;2023-04-25T11:45:48;3.10;;;1.60;;
23872;SDS011;42884;50.718;4.630;2023-04-25T11:48:15;7.15;;;2.17;;
23872;SDS011;42884;50.718;4.630;2023-04-25T11:50:42;6.45;;;1.90;;
23872;SDS011;42884;50.718;4.630;2023-04-25T11:53:08;4.50;;;1.90;;
23872;SDS011;42884;50.718;4.630;2023-04-25T11:55:33;7.35;;;2.47;;
23872;SDS011;42884;50.718;4.630;2023-04-25T11:58:00;11.52;;;2.67;;
23872;SDS011;42884;50.718;4.630;2023-04-25T12:00:27;9.40;;;2.30;;
23872;SDS011;42884;50.718;4.630;2023-04-25T12:02:53;9.27;;;2.38;;
23872;SDS011;42884;50.718;4.630;2023-04-25T12:05:23;5.63;;;2.40;;
23872;SDS011;42884;50.718;4.630;2023-04-25T12:07:50;5.35;;;1.90;;
23872;SDS011;42884;50.718;4.630;2023-04-25T12:10:17;5.55;;;1.92;;
23872;SDS011;42884;50.718;4.630;2023-04-25T12:12:44;5.95;;;2.20;;
23872;SDS011;42884;50.718;4.630;2023-04-25T12:15:18;4.70;;;1.85;;
23872;SDS011;42884;50.718;4.630;2023-04-25T12:17:49;5.93;;;2.55;;
23872;SDS011;42884;50.718;4.630;2023-04-25T12:20:19;6.55;;;1.73;;
23872;SDS011;42884;50.718;4.630;2023-04-25T12:22:47;8.55;;;2.08;;
23872;SDS011;42884;50.718;4.630;2023-04-25T12:25:17;6.03;;;1.88;;
23872;SDS011;42884;50.718;4.630;2023-04-25T12:33:27;8.45;;;2.20;;
23872;SDS011;42884;50.718;4.630;2023-04-25T12:35:54;7.47;;;2.50;;
23872;SDS011;42884;50.718;4.630;2023-04-25T12:38:23;8.63;;;2.22;;
23872;SDS011;42884;50.718;4.630;2023-04-25T12:40:53;5.53;;;2.30;;
23872;SDS011;42884;50.718;4.630;2023-04-25T12:43:19;5.85;;;2.60;;
23872;SDS011;42884;50.718;4.630;2023-04-25T12:45:49;5.28;;;1.80;;
23872;SDS011;42884;50.718;4.630;2023-04-25T12:48:16;4.25;;;1.70;;
23872;SDS011;42884;50.718;4.630;2023-04-25T12:50:43;5.45;;;1.77;;
23872;SDS011;42884;50.718;4.630;2023-04-25T12:53:09;5.40;;;1.40;;
23872;SDS011;42884;50.718;4.630;2023-04-25T12:55:36;4.47;;;1.67;;
23872;SDS011;42884;50.718;4.630;2023-04-25T12:58:02;7.55;;;1.60;;
23872;SDS011;42884;50.718;4.630;2023-04-25T13:00:28;7.82;;;1.80;;
23872;SDS011;42884;50.718;4.630;2023-04-25T13:02:54;5.35;;;2.25;;
23872;SDS011;42884;50.718;4.630;2023-04-25T13:05:20;3.33;;;1.63;;
23872;SDS011;42884;50.718;4.630;2023-04-25T13:07:46;4.88;;;1.48;;
23872;SDS011;42884;50.718;4.630;2023-04-25T13:10:12;5.00;;;1.75;;
23872;SDS011;42884;50.718;4.630;2023-04-25T13:12:38;5.43;;;1.35;;
23872;SDS011;42884;50.718;4.630;2023-04-25T13:15:03;3.10;;;1.20;;
23872;SDS011;42884;50.718;4.630;2023-04-25T13:17:30;6.13;;;1.27;;
23872;SDS011;42884;50.718;4.630;2023-04-25T13:19:55;5.20;;;1.10;;
23872;SDS011;42884;50.718;4.630;2023-04-25T13:22:21;2.90;;;0.90;;
23872;SDS011;42884;50.718;4.630;2023-04-25T13:24:47;3.70;;;1.30;;
23872;SDS011;42884;50.718;4.630;2023-04-25T13:27:12;3.25;;;1.50;;
23872;SDS011;42884;50.718;4.630;2023-04-25T13:29:38;3.03;;;1.10;;
23872;SDS011;42884;50.718;4.630;2023-04-25T13:32:05;4.30;;;1.38;;
23872;SDS011;42884;50.718;4.630;2023-04-25T13:34:31;4.35;;;1.83;;
23872;SDS011;42884;50.718;4.630;2023-04-25T13:36:57;2.60;;;1.42;;
23872;SDS011;42884;50.718;4.630;2023-04-25T13:39:23;4.15;;;1.00;;
23872;SDS011;42884;50.718;4.630;2023-04-25T13:41:49;1.92;;;1.20;;
23872;SDS011;42884;50.718;4.630;2023-04-25T13:44:15;4.18;;;1.27;;
23872;SDS011;42884;50.718;4.630;2023-04-25T13:49:07;5.03;;;1.50;;
23872;SDS011;42884;50.718;4.630;2023-04-25T13:51:32;3.83;;;1.00;;
23872;SDS011;42884;50.718;4.630;2023-04-25T13:53:59;3.45;;;1.20;;
23872;SDS011;42884;50.718;4.630;2023-04-25T13:56:25;4.05;;;1.27;;
23872;SDS011;42884;50.718;4.630;2023-04-25T14:01:17;4.68;;;1.27;;
23872;SDS011;42884;50.718;4.630;2023-04-25T14:03:44;7.00;;;1.67;;
23872;SDS011;42884;50.718;4.630;2023-04-25T14:06:10;4.35;;;1.45;;
23872;SDS011;42884;50.718;4.630;2023-04-25T14:08:37;4.72;;;1.92;;
23872;SDS011;42884;50.718;4.630;2023-04-25T14:13:29;4.28;;;1.92;;
23872;SDS011;42884;50.718;4.630;2023-04-25T14:15:55;4.45;;;1.20;;
23872;SDS011;42884;50.718;4.630;2023-04-25T14:18:21;5.68;;;2.22;;
23872;SDS011;42884;50.718;4.630;2023-04-25T14:20:46;6.07;;;1.52;;
23872;SDS011;42884;50.718;4.630;2023-04-25T14:23:12;4.70;;;1.45;;
23872;SDS011;42884;50.718;4.630;2023-04-25T14:28:05;4.47;;;1.60;;
23872;SDS011;42884;50.718;4.630;2023-04-25T14:32:56;3.72;;;1.42;;
23872;SDS011;42884;50.718;4.630;2023-04-25T14:35:22;4.50;;;1.83;;
23872;SDS011;42884;50.718;4.630;2023-04-25T14:37:48;3.78;;;1.25;;
23872;SDS011;42884;50.718;4.630;2023-04-25T14:40:14;4.18;;;1.30;;
23872;SDS011;42884;50.718;4.630;2023-04-25T14:42:41;2.17;;;1.40;;
23872;SDS011;42884;50.718;4.630;2023-04-25T14:45:08;4.28;;;1.45;;
23872;SDS011;42884;50.718;4.630;2023-04-25T14:47:34;5.05;;;1.45;;
23872;SDS011;42884;50.718;4.630;2023-04-25T14:50:03;5.72;;;1.58;;
23872;SDS011;42884;50.718;4.630;2023-04-25T14:52:29;3.53;;;1.48;;
23872;SDS011;42884;50.718;4.630;2023-04-25T14:54:56;5.60;;;1.60;;
23872;SDS011;42884;50.718;4.630;2023-04-25T14:57:21;7.13;;;1.83;;
23872;SDS011;42884;50.718;4.630;2023-04-25T14:59:47;5.00;;;1.30;;
23872;SDS011;42884;50.718;4.630;2023-04-25T15:02:13;5.30;;;1.42;;
23872;SDS011;42884;50.718;4.630;2023-04-25T15:04:39;4.53;;;1.40;;
23872;SDS011;42884;50.718;4.630;2023-04-25T15:07:04;3.10;;;1.42;;
23872;SDS011;42884;50.718;4.630;2023-04-25T15:09:30;2.55;;;1.20;;
23872;SDS011;42884;50.718;4.630;2023-04-25T15:11:56;3.75;;;1.20;;
23872;SDS011;42884;50.718;4.630;2023-04-25T15:14:23;5.00;;;2.03;;
23872;SDS011;42884;50.718;4.630;2023-04-25T15:16:48;4.65;;;1.05;;
23872;SDS011;42884;50.718;4.630;2023-04-25T15:19:15;3.60;;;1.35;;
23872;SDS011;42884;50.718;4.630;2023-04-25T15:21:41;5.63;;;1.55;;